sensor_id;sensor_type;location;lat;lon;timestamp;temperature;humidity
1075;DHT22;526;51.392;12.448;2022-08-19T00:01:24;20.70;97.30
1075;DHT22;526;51.392;12.448;2022-08-19T00:03:50;20.70;97.30
1075;DHT22;526;51.392;12.448;2022-08-19T00:06:16;20.70;97.30
1075;DHT22;526;51.392;12.448;2022-08-19T00:08:42;20.70;97.30
1075;DHT22;526;51.392;12.448;2022-08-19T00:11:09;20.70;97.30
1075;DHT22;526;51.392;12.448;2022-08-19T00:13:34;20.70;97.30
1075;DHT22;526;51.392;12.448;2022-08-19T00:16:00;20.70;97.30
1075;DHT22;526;51.392;12.448;2022-08-19T00:18:26;20.70;97.30
1075;DHT22;526;51.392;12.448;2022-08-19T00:20:52;20.70;97.30
1075;DHT22;526;51.392;12.448;2022-08-19T00:23:18;20.70;97.30
1075;DHT22;526;51.392;12.448;2022-08-19T00:25:44;20.70;97.30
1075;DHT22;526;51.392;12.448;2022-08-19T00:28:10;20.60;97.30
1075;DHT22;526;51.392;12.448;2022-08-19T00:30:35;20.50;97.30
1075;DHT22;526;51.392;12.448;2022-08-19T00:33:01;20.50;97.30
1075;DHT22;526;51.392;12.448;2022-08-19T00:35:26;20.60;97.30
1075;DHT22;526;51.392;12.448;2022-08-19T00:37:53;20.60;97.30
1075;DHT22;526;51.392;12.448;2022-08-19T00:40:20;20.60;97.30
1075;DHT22;526;51.392;12.448;2022-08-19T00:42:46;20.60;97.30
1075;DHT22;526;51.392;12.448;2022-08-19T00:45:15;20.60;97.30
1075;DHT22;526;51.392;12.448;2022-08-19T00:47:43;20.60;97.30
1075;DHT22;526;51.392;12.448;2022-08-19T00:50:11;20.60;97.30
1075;DHT22;526;51.392;12.448;2022-08-19T00:52:40;20.60;97.30
1075;DHT22;526;51.392;12.448;2022-08-19T00:55:10;20.50;97.30
1075;DHT22;526;51.392;12.448;2022-08-19T00:57:40;20.50;97.30
1075;DHT22;526;51.392;12.448;2022-08-19T01:00:14;20.50;97.30
1075;DHT22;526;51.392;12.448;2022-08-19T01:02:41;20.50;97.30
1075;DHT22;526;51.392;12.448;2022-08-19T01:05:10;20.50;97.30
1075;DHT22;526;51.392;12.448;2022-08-19T01:07:38;20.50;97.30
1075;DHT22;526;51.392;12.448;2022-08-19T01:15:00;20.50;97.30
1075;DHT22;526;51.392;12.448;2022-08-19T01:17:26;20.50;97.30
1075;DHT22;526;51.392;12.448;2022-08-19T01:19:52;20.50;97.30
1075;DHT22;526;51.392;12.448;2022-08-19T01:24:50;20.50;97.30
1075;DHT22;526;51.392;12.448;2022-08-19T01:27:17;20.50;97.30
1075;DHT22;526;51.392;12.448;2022-08-19T01:29:43;20.50;97.30
1075;DHT22;526;51.392;12.448;2022-08-19T01:32:13;20.50;97.30
1075;DHT22;526;51.392;12.448;2022-08-19T01:34:40;20.50;97.30
1075;DHT22;526;51.392;12.448;2022-08-19T01:37:10;20.50;97.30
1075;DHT22;526;51.392;12.448;2022-08-19T01:39:37;20.50;97.30
1075;DHT22;526;51.392;12.448;2022-08-19T01:42:04;20.40;97.30
1075;DHT22;526;51.392;12.448;2022-08-19T01:44:30;20.40;97.30
1075;DHT22;526;51.392;12.448;2022-08-19T01:46:56;20.50;97.30
1075;DHT22;526;51.392;12.448;2022-08-19T01:49:23;20.50;97.30
1075;DHT22;526;51.392;12.448;2022-08-19T01:51:50;20.50;97.30
1075;DHT22;526;51.392;12.448;2022-08-19T01:54:18;20.60;97.30
1075;DHT22;526;51.392;12.448;2022-08-19T01:56:44;20.50;97.30
1075;DHT22;526;51.392;12.448;2022-08-19T01:59:17;20.60;97.30
1075;DHT22;526;51.392;12.448;2022-08-19T02:01:44;20.50;97.30
1075;DHT22;526;51.392;12.448;2022-08-19T02:04:10;20.50;97.30
1075;DHT22;526;51.392;12.448;2022-08-19T02:06:36;20.50;97.30
1075;DHT22;526;51.392;12.448;2022-08-19T02:09:03;20.40;97.30
1075;DHT22;526;51.392;12.448;2022-08-19T02:11:32;20.40;97.30
1075;DHT22;526;51.392;12.448;2022-08-19T02:14:00;20.40;97.30
1075;DHT22;526;51.392;12.448;2022-08-19T02:16:27;20.30;97.30
1075;DHT22;526;51.392;12.448;2022-08-19T02:18:53;20.30;97.30
1075;DHT22;526;51.392;12.448;2022-08-19T02:21:21;20.40;97.30
1075;DHT22;526;51.392;12.448;2022-08-19T02:23:48;20.40;97.30
1075;DHT22;526;51.392;12.448;2022-08-19T02:26:14;20.40;97.30
1075;DHT22;526;51.392;12.448;2022-08-19T02:28:41;20.40;97.30
1075;DHT22;526;51.392;12.448;2022-08-19T02:31:19;20.40;97.30
1075;DHT22;526;51.392;12.448;2022-08-19T02:33:45;20.50;97.30
1075;DHT22;526;51.392;12.448;2022-08-19T02:36:13;20.50;97.30
1075;DHT22;526;51.392;12.448;2022-08-19T02:38:39;20.50;97.30
1075;DHT22;526;51.392;12.448;2022-08-19T02:41:20;20.50;97.30
1075;DHT22;526;51.392;12.448;2022-08-19T02:43:47;20.60;97.30
1075;DHT22;526;51.392;12.448;2022-08-19T02:48:49;20.60;97.30
1075;DHT22;526;51.392;12.448;2022-08-19T02:51:22;20.60;97.30
1075;DHT22;526;51.392;12.448;2022-08-19T02:53:48;20.60;97.30
1075;DHT22;526;51.392;12.448;2022-08-19T02:56:14;20.60;97.30
1075;DHT22;526;51.392;12.448;2022-08-19T02:58:40;20.60;97.30
1075;DHT22;526;51.392;12.448;2022-08-19T03:01:06;20.60;97.30
1075;DHT22;526;51.392;12.448;2022-08-19T03:03:32;20.60;97.30
1075;DHT22;526;51.392;12.448;2022-08-19T03:06:11;20.60;97.30
1075;DHT22;526;51.392;12.448;2022-08-19T03:08:38;20.60;97.30
1075;DHT22;526;51.392;12.448;2022-08-19T03:11:04;20.60;97.30
1075;DHT22;526;51.392;12.448;2022-08-19T03:13:30;20.60;97.30
1075;DHT22;526;51.392;12.448;2022-08-19T03:15:55;20.60;97.30
1075;DHT22;526;51.392;12.448;2022-08-19T03:18:21;20.50;97.30
1075;DHT22;526;51.392;12.448;2022-08-19T03:20:51;20.50;97.30
1075;DHT22;526;51.392;12.448;2022-08-19T03:23:18;20.50;97.30
1075;DHT22;526;51.392;12.448;2022-08-19T03:25:46;20.50;97.30
1075;DHT22;526;51.392;12.448;2022-08-19T03:28:14;20.60;97.30
1075;DHT22;526;51.392;12.448;2022-08-19T03:30:41;20.60;97.30
1075;DHT22;526;51.392;12.448;2022-08-19T03:33:08;20.60;97.30
1075;DHT22;526;51.392;12.448;2022-08-19T03:35:34;20.60;97.30
1075;DHT22;526;51.392;12.448;2022-08-19T03:38:03;20.50;97.30
1075;DHT22;526;51.392;12.448;2022-08-19T03:40:29;20.50;97.30
1075;DHT22;526;51.392;12.448;2022-08-19T03:42:57;20.50;97.30
1075;DHT22;526;51.392;12.448;2022-08-19T03:45:23;20.50;97.30
1075;DHT22;526;51.392;12.448;2022-08-19T03:47:49;20.50;97.30
1075;DHT22;526;51.392;12.448;2022-08-19T03:50:15;20.50;97.30
1075;DHT22;526;51.392;12.448;2022-08-19T03:52:41;20.50;97.30
1075;DHT22;526;51.392;12.448;2022-08-19T03:55:06;20.50;97.30
1075;DHT22;526;51.392;12.448;2022-08-19T03:57:33;20.50;97.30
1075;DHT22;526;51.392;12.448;2022-08-19T04:00:00;20.50;97.30
1075;DHT22;526;51.392;12.448;2022-08-19T04:02:31;20.50;97.30
1075;DHT22;526;51.392;12.448;2022-08-19T04:04:57;20.50;97.30
1075;DHT22;526;51.392;12.448;2022-08-19T04:07:23;20.50;97.30
1075;DHT22;526;51.392;12.448;2022-08-19T04:09:48;20.50;97.30
1075;DHT22;526;51.392;12.448;2022-08-19T04:12:14;20.40;97.30
1075;DHT22;526;51.392;12.448;2022-08-19T04:14:40;20.40;97.30
1075;DHT22;526;51.392;12.448;2022-08-19T04:17:06;20.40;97.30
1075;DHT22;526;51.392;12.448;2022-08-19T04:19:32;20.40;97.30
1075;DHT22;526;51.392;12.448;2022-08-19T04:21:58;20.40;97.30
1075;DHT22;526;51.392;12.448;2022-08-19T04:24:24;20.40;97.30
1075;DHT22;526;51.392;12.448;2022-08-19T04:26:50;20.40;97.30
1075;DHT22;526;51.392;12.448;2022-08-19T04:29:25;20.30;97.30
1075;DHT22;526;51.392;12.448;2022-08-19T04:31:54;20.30;97.30
1075;DHT22;526;51.392;12.448;2022-08-19T04:34:21;20.30;97.30
1075;DHT22;526;51.392;12.448;2022-08-19T04:36:49;20.30;97.30
1075;DHT22;526;51.392;12.448;2022-08-19T04:39:19;20.40;97.30
1075;DHT22;526;51.392;12.448;2022-08-19T04:41:45;20.40;97.30
1075;DHT22;526;51.392;12.448;2022-08-19T04:44:34;20.40;97.30
1075;DHT22;526;51.392;12.448;2022-08-19T04:47:00;20.40;97.30
1075;DHT22;526;51.392;12.448;2022-08-19T04:49:26;20.30;97.30
1075;DHT22;526;51.392;12.448;2022-08-19T04:51:53;20.30;97.30
1075;DHT22;526;51.392;12.448;2022-08-19T04:54:21;20.30;97.30
1075;DHT22;526;51.392;12.448;2022-08-19T04:56:49;20.30;97.30
1075;DHT22;526;51.392;12.448;2022-08-19T04:59:16;20.30;97.30
1075;DHT22;526;51.392;12.448;2022-08-19T05:01:43;20.30;97.30
1075;DHT22;526;51.392;12.448;2022-08-19T05:04:09;20.20;97.30
1075;DHT22;526;51.392;12.448;2022-08-19T05:06:35;20.20;97.30
1075;DHT22;526;51.392;12.448;2022-08-19T05:09:04;20.20;97.30
1075;DHT22;526;51.392;12.448;2022-08-19T05:11:32;20.30;97.30
1075;DHT22;526;51.392;12.448;2022-08-19T05:13:58;20.30;97.30
1075;DHT22;526;51.392;12.448;2022-08-19T05:16:25;20.30;97.30
1075;DHT22;526;51.392;12.448;2022-08-19T05:18:52;20.30;97.30
1075;DHT22;526;51.392;12.448;2022-08-19T05:21:36;20.40;97.30
1075;DHT22;526;51.392;12.448;2022-08-19T05:24:22;20.40;97.30
1075;DHT22;526;51.392;12.448;2022-08-19T05:26:50;20.40;97.30
1075;DHT22;526;51.392;12.448;2022-08-19T05:29:20;20.40;97.30
1075;DHT22;526;51.392;12.448;2022-08-19T05:31:47;20.40;97.30
1075;DHT22;526;51.392;12.448;2022-08-19T05:34:15;20.40;97.30
1075;DHT22;526;51.392;12.448;2022-08-19T05:36:43;20.40;97.30
1075;DHT22;526;51.392;12.448;2022-08-19T05:39:13;20.40;97.30
1075;DHT22;526;51.392;12.448;2022-08-19T05:41:48;20.30;97.30
1075;DHT22;526;51.392;12.448;2022-08-19T05:44:14;20.30;97.30
1075;DHT22;526;51.392;12.448;2022-08-19T05:46:41;20.30;97.30
1075;DHT22;526;51.392;12.448;2022-08-19T05:49:07;20.30;97.30
1075;DHT22;526;51.392;12.448;2022-08-19T05:51:35;20.30;97.30
1075;DHT22;526;51.392;12.448;2022-08-19T05:54:02;20.30;97.30
1075;DHT22;526;51.392;12.448;2022-08-19T05:56:28;20.30;97.30
1075;DHT22;526;51.392;12.448;2022-08-19T05:58:56;20.30;97.30
1075;DHT22;526;51.392;12.448;2022-08-19T06:01:22;20.30;97.30
1075;DHT22;526;51.392;12.448;2022-08-19T06:03:47;20.30;97.30
1075;DHT22;526;51.392;12.448;2022-08-19T06:06:15;20.30;97.30
1075;DHT22;526;51.392;12.448;2022-08-19T06:08:41;20.30;97.30
1075;DHT22;526;51.392;12.448;2022-08-19T06:14:01;20.30;97.30
1075;DHT22;526;51.392;12.448;2022-08-19T06:16:27;20.30;97.30
1075;DHT22;526;51.392;12.448;2022-08-19T06:18:54;20.30;97.30
1075;DHT22;526;51.392;12.448;2022-08-19T06:21:23;20.30;97.30
1075;DHT22;526;51.392;12.448;2022-08-19T06:23:49;20.30;97.30
1075;DHT22;526;51.392;12.448;2022-08-19T06:26:17;20.30;97.30
1075;DHT22;526;51.392;12.448;2022-08-19T06:28:44;20.30;97.30
1075;DHT22;526;51.392;12.448;2022-08-19T06:31:16;20.30;97.30
1075;DHT22;526;51.392;12.448;2022-08-19T06:33:43;20.30;97.30
1075;DHT22;526;51.392;12.448;2022-08-19T06:36:26;20.30;97.30
1075;DHT22;526;51.392;12.448;2022-08-19T06:39:21;20.30;97.30
1075;DHT22;526;51.392;12.448;2022-08-19T06:41:48;20.30;97.30
1075;DHT22;526;51.392;12.448;2022-08-19T06:44:15;20.30;97.30
1075;DHT22;526;51.392;12.448;2022-08-19T06:46:41;20.20;97.30
1075;DHT22;526;51.392;12.448;2022-08-19T06:49:07;20.20;97.30
1075;DHT22;526;51.392;12.448;2022-08-19T06:51:43;20.20;97.30
1075;DHT22;526;51.392;12.448;2022-08-19T06:54:10;20.20;97.30
1075;DHT22;526;51.392;12.448;2022-08-19T06:56:36;20.20;97.30
1075;DHT22;526;51.392;12.448;2022-08-19T06:59:09;20.20;97.30
1075;DHT22;526;51.392;12.448;2022-08-19T07:01:41;20.20;97.30
1075;DHT22;526;51.392;12.448;2022-08-19T07:04:08;20.20;97.30
1075;DHT22;526;51.392;12.448;2022-08-19T07:06:36;20.20;97.30
1075;DHT22;526;51.392;12.448;2022-08-19T07:09:06;20.20;97.30
1075;DHT22;526;51.392;12.448;2022-08-19T07:11:32;20.20;97.30
1075;DHT22;526;51.392;12.448;2022-08-19T07:13:58;20.20;97.30
1075;DHT22;526;51.392;12.448;2022-08-19T07:16:24;20.20;97.30
1075;DHT22;526;51.392;12.448;2022-08-19T07:18:50;20.20;97.30
1075;DHT22;526;51.392;12.448;2022-08-19T07:21:23;20.20;97.30
1075;DHT22;526;51.392;12.448;2022-08-19T07:23:50;20.20;97.30
1075;DHT22;526;51.392;12.448;2022-08-19T07:26:19;20.10;97.30
1075;DHT22;526;51.392;12.448;2022-08-19T07:28:47;20.10;97.30
1075;DHT22;526;51.392;12.448;2022-08-19T07:31:15;20.10;97.30
1075;DHT22;526;51.392;12.448;2022-08-19T07:33:43;20.00;97.30
1075;DHT22;526;51.392;12.448;2022-08-19T07:36:11;20.00;97.30
1075;DHT22;526;51.392;12.448;2022-08-19T07:38:39;20.00;97.30
1075;DHT22;526;51.392;12.448;2022-08-19T07:41:06;20.00;97.30
1075;DHT22;526;51.392;12.448;2022-08-19T07:43:32;20.00;97.30
1075;DHT22;526;51.392;12.448;2022-08-19T07:45:57;19.90;97.30
1075;DHT22;526;51.392;12.448;2022-08-19T07:48:25;19.90;97.30
1075;DHT22;526;51.392;12.448;2022-08-19T07:50:53;19.90;97.30
1075;DHT22;526;51.392;12.448;2022-08-19T07:53:20;19.80;97.30
1075;DHT22;526;51.392;12.448;2022-08-19T07:55:45;19.80;97.30
1075;DHT22;526;51.392;12.448;2022-08-19T07:58:14;19.80;97.30
1075;DHT22;526;51.392;12.448;2022-08-19T08:00:41;19.80;97.30
1075;DHT22;526;51.392;12.448;2022-08-19T08:03:08;19.80;97.30
1075;DHT22;526;51.392;12.448;2022-08-19T08:05:34;19.80;97.30
1075;DHT22;526;51.392;12.448;2022-08-19T08:08:19;19.80;97.30
1075;DHT22;526;51.392;12.448;2022-08-19T08:11:04;19.90;97.30
1075;DHT22;526;51.392;12.448;2022-08-19T08:13:30;19.90;97.30
1075;DHT22;526;51.392;12.448;2022-08-19T08:15:56;20.00;97.30
1075;DHT22;526;51.392;12.448;2022-08-19T08:18:25;20.00;97.30
1075;DHT22;526;51.392;12.448;2022-08-19T08:20:51;20.10;97.30
1075;DHT22;526;51.392;12.448;2022-08-19T08:23:17;20.10;97.30
1075;DHT22;526;51.392;12.448;2022-08-19T08:25:54;20.10;97.30
1075;DHT22;526;51.392;12.448;2022-08-19T08:28:20;20.10;97.30
1075;DHT22;526;51.392;12.448;2022-08-19T08:30:48;20.20;97.30
1075;DHT22;526;51.392;12.448;2022-08-19T08:33:18;20.20;97.30
1075;DHT22;526;51.392;12.448;2022-08-19T08:35:44;20.20;97.30
1075;DHT22;526;51.392;12.448;2022-08-19T08:38:12;20.20;97.30
1075;DHT22;526;51.392;12.448;2022-08-19T08:40:44;20.30;97.30
1075;DHT22;526;51.392;12.448;2022-08-19T08:45:42;20.20;97.30
1075;DHT22;526;51.392;12.448;2022-08-19T08:48:19;20.20;97.30
1075;DHT22;526;51.392;12.448;2022-08-19T08:50:47;20.20;97.30
1075;DHT22;526;51.392;12.448;2022-08-19T08:53:18;20.20;97.30
1075;DHT22;526;51.392;12.448;2022-08-19T08:55:45;20.20;97.30
1075;DHT22;526;51.392;12.448;2022-08-19T08:58:24;20.20;97.30
1075;DHT22;526;51.392;12.448;2022-08-19T09:00:51;20.20;97.30
1075;DHT22;526;51.392;12.448;2022-08-19T09:03:26;20.20;97.30
1075;DHT22;526;51.392;12.448;2022-08-19T09:06:23;20.10;97.30
1075;DHT22;526;51.392;12.448;2022-08-19T09:09:22;20.10;97.30
1075;DHT22;526;51.392;12.448;2022-08-19T09:17:12;20.20;97.30
1075;DHT22;526;51.392;12.448;2022-08-19T09:19:56;20.20;97.30
1075;DHT22;526;51.392;12.448;2022-08-19T09:22:22;20.20;97.30
1075;DHT22;526;51.392;12.448;2022-08-19T09:24:51;20.20;97.30
1075;DHT22;526;51.392;12.448;2022-08-19T09:27:19;20.20;97.30
1075;DHT22;526;51.392;12.448;2022-08-19T09:29:45;20.20;97.30
1075;DHT22;526;51.392;12.448;2022-08-19T09:32:13;20.10;97.30
1075;DHT22;526;51.392;12.448;2022-08-19T09:34:38;20.10;97.30
1075;DHT22;526;51.392;12.448;2022-08-19T09:37:04;20.10;97.30
1075;DHT22;526;51.392;12.448;2022-08-19T09:39:30;20.10;97.30
1075;DHT22;526;51.392;12.448;2022-08-19T09:41:56;20.20;97.30
1075;DHT22;526;51.392;12.448;2022-08-19T09:44:21;20.20;97.30
1075;DHT22;526;51.392;12.448;2022-08-19T09:46:47;20.10;97.30
1075;DHT22;526;51.392;12.448;2022-08-19T09:49:12;20.10;97.30
1075;DHT22;526;51.392;12.448;2022-08-19T09:51:38;20.10;97.30
1075;DHT22;526;51.392;12.448;2022-08-19T09:54:04;20.10;97.30
1075;DHT22;526;51.392;12.448;2022-08-19T09:56:31;20.20;97.30
1075;DHT22;526;51.392;12.448;2022-08-19T09:59:01;20.20;97.30
1075;DHT22;526;51.392;12.448;2022-08-19T10:01:29;20.30;97.30
1075;DHT22;526;51.392;12.448;2022-08-19T10:03:57;20.30;97.30
1075;DHT22;526;51.392;12.448;2022-08-19T10:06:25;20.40;97.30
1075;DHT22;526;51.392;12.448;2022-08-19T10:08:51;20.40;97.30
1075;DHT22;526;51.392;12.448;2022-08-19T10:11:18;20.40;97.30
1075;DHT22;526;51.392;12.448;2022-08-19T10:13:44;20.30;97.30
1075;DHT22;526;51.392;12.448;2022-08-19T10:16:14;20.30;97.30
1075;DHT22;526;51.392;12.448;2022-08-19T10:18:41;20.30;97.30
1075;DHT22;526;51.392;12.448;2022-08-19T10:23:38;20.30;97.30
1075;DHT22;526;51.392;12.448;2022-08-19T10:26:05;20.30;97.30
1075;DHT22;526;51.392;12.448;2022-08-19T10:28:32;20.30;97.30
1075;DHT22;526;51.392;12.448;2022-08-19T10:31:01;20.40;97.30
1075;DHT22;526;51.392;12.448;2022-08-19T10:33:28;20.40;97.30
1075;DHT22;526;51.392;12.448;2022-08-19T10:36:30;20.50;97.30
1075;DHT22;526;51.392;12.448;2022-08-19T10:38:58;20.50;97.30
1075;DHT22;526;51.392;12.448;2022-08-19T10:41:28;20.50;97.30
1075;DHT22;526;51.392;12.448;2022-08-19T10:43:56;20.60;97.30
1075;DHT22;526;51.392;12.448;2022-08-19T10:46:24;20.60;97.30
1075;DHT22;526;51.392;12.448;2022-08-19T10:48:51;20.70;97.30
1075;DHT22;526;51.392;12.448;2022-08-19T10:51:17;20.70;97.30
1075;DHT22;526;51.392;12.448;2022-08-19T10:54:17;20.70;97.30
1075;DHT22;526;51.392;12.448;2022-08-19T10:56:43;20.80;97.30
1075;DHT22;526;51.392;12.448;2022-08-19T10:59:25;20.80;97.30
1075;DHT22;526;51.392;12.448;2022-08-19T11:01:53;20.80;97.30
1075;DHT22;526;51.392;12.448;2022-08-19T11:04:19;20.80;97.30
1075;DHT22;526;51.392;12.448;2022-08-19T11:06:47;20.90;97.30
1075;DHT22;526;51.392;12.448;2022-08-19T11:09:23;20.90;97.30
1075;DHT22;526;51.392;12.448;2022-08-19T11:11:55;20.80;97.30
1075;DHT22;526;51.392;12.448;2022-08-19T11:14:22;20.80;97.30
1075;DHT22;526;51.392;12.448;2022-08-19T11:16:49;20.80;97.30
1075;DHT22;526;51.392;12.448;2022-08-19T11:19:18;20.90;97.30
1075;DHT22;526;51.392;12.448;2022-08-19T11:21:49;20.80;97.30
1075;DHT22;526;51.392;12.448;2022-08-19T11:24:18;20.80;97.30
1075;DHT22;526;51.392;12.448;2022-08-19T11:26:45;20.80;97.30
1075;DHT22;526;51.392;12.448;2022-08-19T11:29:12;20.80;97.30
1075;DHT22;526;51.392;12.448;2022-08-19T11:31:41;20.80;97.30
1075;DHT22;526;51.392;12.448;2022-08-19T11:34:09;20.90;97.30
1075;DHT22;526;51.392;12.448;2022-08-19T11:36:37;20.90;97.30
1075;DHT22;526;51.392;12.448;2022-08-19T11:39:05;21.00;97.30
1075;DHT22;526;51.392;12.448;2022-08-19T11:41:31;21.10;97.30
1075;DHT22;526;51.392;12.448;2022-08-19T11:43:57;21.10;97.30
1075;DHT22;526;51.392;12.448;2022-08-19T11:46:24;21.10;97.30
1075;DHT22;526;51.392;12.448;2022-08-19T11:48:51;21.10;97.30
1075;DHT22;526;51.392;12.448;2022-08-19T11:51:20;21.10;97.30
1075;DHT22;526;51.392;12.448;2022-08-19T11:53:47;21.20;97.30
1075;DHT22;526;51.392;12.448;2022-08-19T11:56:13;21.20;97.30
1075;DHT22;526;51.392;12.448;2022-08-19T11:58:39;21.20;97.30
1075;DHT22;526;51.392;12.448;2022-08-19T12:01:08;21.20;97.30
1075;DHT22;526;51.392;12.448;2022-08-19T12:03:34;21.20;97.30
1075;DHT22;526;51.392;12.448;2022-08-19T12:06:09;21.20;97.30
1075;DHT22;526;51.392;12.448;2022-08-19T12:08:35;21.20;97.30
1075;DHT22;526;51.392;12.448;2022-08-19T12:11:01;21.30;97.30
1075;DHT22;526;51.392;12.448;2022-08-19T12:13:28;21.30;97.30
1075;DHT22;526;51.392;12.448;2022-08-19T12:15:54;21.30;97.30
1075;DHT22;526;51.392;12.448;2022-08-19T12:18:19;21.30;97.30
1075;DHT22;526;51.392;12.448;2022-08-19T12:20:45;21.30;97.30
1075;DHT22;526;51.392;12.448;2022-08-19T12:23:11;21.40;97.30
1075;DHT22;526;51.392;12.448;2022-08-19T12:25:43;21.40;97.30
1075;DHT22;526;51.392;12.448;2022-08-19T12:28:13;21.50;97.30
1075;DHT22;526;51.392;12.448;2022-08-19T12:30:39;21.60;97.30
1075;DHT22;526;51.392;12.448;2022-08-19T12:33:04;21.60;97.30
1075;DHT22;526;51.392;12.448;2022-08-19T12:35:30;21.80;97.30
1075;DHT22;526;51.392;12.448;2022-08-19T12:37:56;22.00;97.30
1075;DHT22;526;51.392;12.448;2022-08-19T12:40:21;22.10;97.30
1075;DHT22;526;51.392;12.448;2022-08-19T12:42:47;22.40;97.30
1075;DHT22;526;51.392;12.448;2022-08-19T12:45:14;22.50;97.30
1075;DHT22;526;51.392;12.448;2022-08-19T12:47:40;22.70;97.30
1075;DHT22;526;51.392;12.448;2022-08-19T12:50:06;22.80;97.30
1075;DHT22;526;51.392;12.448;2022-08-19T12:52:35;22.90;97.30
1075;DHT22;526;51.392;12.448;2022-08-19T12:55:04;22.90;97.30
1075;DHT22;526;51.392;12.448;2022-08-19T12:57:30;22.90;97.30
1075;DHT22;526;51.392;12.448;2022-08-19T12:59:59;23.00;97.30
1075;DHT22;526;51.392;12.448;2022-08-19T13:02:25;23.00;97.30
1075;DHT22;526;51.392;12.448;2022-08-19T13:04:51;23.00;97.30
1075;DHT22;526;51.392;12.448;2022-08-19T13:07:17;23.00;97.30
1075;DHT22;526;51.392;12.448;2022-08-19T13:09:42;23.00;97.30
1075;DHT22;526;51.392;12.448;2022-08-19T13:12:08;23.00;97.30
1075;DHT22;526;51.392;12.448;2022-08-19T13:14:38;23.00;97.30
1075;DHT22;526;51.392;12.448;2022-08-19T13:17:06;23.00;97.30
1075;DHT22;526;51.392;12.448;2022-08-19T13:19:31;23.00;97.30
1075;DHT22;526;51.392;12.448;2022-08-19T13:21:57;23.00;97.30
1075;DHT22;526;51.392;12.448;2022-08-19T13:24:24;22.90;97.30
1075;DHT22;526;51.392;12.448;2022-08-19T13:26:49;22.90;97.30
1075;DHT22;526;51.392;12.448;2022-08-19T13:29:15;22.80;97.30
1075;DHT22;526;51.392;12.448;2022-08-19T13:31:59;22.80;97.30
1075;DHT22;526;51.392;12.448;2022-08-19T13:34:43;22.80;97.30
1075;DHT22;526;51.392;12.448;2022-08-19T13:37:11;22.80;97.30
1075;DHT22;526;51.392;12.448;2022-08-19T13:39:37;22.80;97.30
1075;DHT22;526;51.392;12.448;2022-08-19T13:42:03;22.70;97.30
1075;DHT22;526;51.392;12.448;2022-08-19T13:44:30;22.60;97.30
1075;DHT22;526;51.392;12.448;2022-08-19T13:47:01;22.60;97.30
1075;DHT22;526;51.392;12.448;2022-08-19T13:49:30;22.60;97.30
1075;DHT22;526;51.392;12.448;2022-08-19T13:51:56;22.50;97.30
1075;DHT22;526;51.392;12.448;2022-08-19T13:54:22;22.50;97.30
1075;DHT22;526;51.392;12.448;2022-08-19T13:56:48;22.40;97.30
1075;DHT22;526;51.392;12.448;2022-08-19T13:59:13;22.40;97.30
1075;DHT22;526;51.392;12.448;2022-08-19T14:01:39;22.40;97.30
1075;DHT22;526;51.392;12.448;2022-08-19T14:04:06;22.30;97.30
1075;DHT22;526;51.392;12.448;2022-08-19T14:06:32;22.30;97.30
1075;DHT22;526;51.392;12.448;2022-08-19T14:08:58;22.30;97.30
1075;DHT22;526;51.392;12.448;2022-08-19T14:11:23;22.30;97.30
1075;DHT22;526;51.392;12.448;2022-08-19T14:13:50;22.30;97.30
1075;DHT22;526;51.392;12.448;2022-08-19T14:16:15;22.30;97.30
1075;DHT22;526;51.392;12.448;2022-08-19T14:18:41;22.30;97.30
1075;DHT22;526;51.392;12.448;2022-08-19T14:21:07;22.30;97.30
1075;DHT22;526;51.392;12.448;2022-08-19T14:23:38;22.30;97.30
1075;DHT22;526;51.392;12.448;2022-08-19T14:26:15;22.30;97.30
1075;DHT22;526;51.392;12.448;2022-08-19T14:28:42;22.30;97.30
1075;DHT22;526;51.392;12.448;2022-08-19T14:31:10;22.40;97.30
1075;DHT22;526;51.392;12.448;2022-08-19T14:33:36;22.40;97.30
1075;DHT22;526;51.392;12.448;2022-08-19T14:36:02;22.40;97.30
1075;DHT22;526;51.392;12.448;2022-08-19T14:38:28;22.40;97.30
1075;DHT22;526;51.392;12.448;2022-08-19T14:41:13;22.40;97.30
1075;DHT22;526;51.392;12.448;2022-08-19T14:43:42;22.40;97.30
1075;DHT22;526;51.392;12.448;2022-08-19T14:46:11;22.50;97.30
1075;DHT22;526;51.392;12.448;2022-08-19T14:48:38;22.40;97.30
1075;DHT22;526;51.392;12.448;2022-08-19T14:51:04;22.40;97.30
1075;DHT22;526;51.392;12.448;2022-08-19T14:53:30;22.40;97.30
1075;DHT22;526;51.392;12.448;2022-08-19T14:55:59;22.50;97.30
1075;DHT22;526;51.392;12.448;2022-08-19T14:58:25;22.50;97.30
1075;DHT22;526;51.392;12.448;2022-08-19T15:00:50;22.60;97.30
1075;DHT22;526;51.392;12.448;2022-08-19T15:03:16;22.70;97.30
1075;DHT22;526;51.392;12.448;2022-08-19T15:05:41;22.70;97.30
1075;DHT22;526;51.392;12.448;2022-08-19T15:08:07;22.70;97.30
1075;DHT22;526;51.392;12.448;2022-08-19T15:10:32;22.70;97.30
1075;DHT22;526;51.392;12.448;2022-08-19T15:12:58;22.70;97.30
1075;DHT22;526;51.392;12.448;2022-08-19T15:15:25;22.70;97.30
1075;DHT22;526;51.392;12.448;2022-08-19T15:17:50;22.70;97.30
1075;DHT22;526;51.392;12.448;2022-08-19T15:20:19;22.60;97.30
1075;DHT22;526;51.392;12.448;2022-08-19T15:22:46;22.60;97.30
1075;DHT22;526;51.392;12.448;2022-08-19T15:25:13;22.60;97.30
1075;DHT22;526;51.392;12.448;2022-08-19T15:27:40;22.60;97.30
1075;DHT22;526;51.392;12.448;2022-08-19T15:30:08;22.50;97.30
1075;DHT22;526;51.392;12.448;2022-08-19T15:32:34;22.50;97.30
1075;DHT22;526;51.392;12.448;2022-08-19T15:35:00;22.50;97.30
1075;DHT22;526;51.392;12.448;2022-08-19T15:37:27;22.40;97.30
1075;DHT22;526;51.392;12.448;2022-08-19T15:39:53;22.40;97.30
1075;DHT22;526;51.392;12.448;2022-08-19T15:42:19;22.40;97.30
1075;DHT22;526;51.392;12.448;2022-08-19T15:44:46;22.40;97.30
1075;DHT22;526;51.392;12.448;2022-08-19T15:47:12;22.40;97.30
1075;DHT22;526;51.392;12.448;2022-08-19T15:49:38;22.40;97.30
1075;DHT22;526;51.392;12.448;2022-08-19T15:52:03;22.40;97.30
1075;DHT22;526;51.392;12.448;2022-08-19T15:54:30;22.40;97.30
1075;DHT22;526;51.392;12.448;2022-08-19T15:56:55;22.40;97.30
1075;DHT22;526;51.392;12.448;2022-08-19T15:59:39;22.30;97.30
1075;DHT22;526;51.392;12.448;2022-08-19T16:02:26;22.30;97.30
1075;DHT22;526;51.392;12.448;2022-08-19T16:05:13;22.20;97.30
1075;DHT22;526;51.392;12.448;2022-08-19T16:07:58;22.20;97.30
1075;DHT22;526;51.392;12.448;2022-08-19T16:10:26;22.20;97.30
1075;DHT22;526;51.392;12.448;2022-08-19T16:12:52;22.20;97.30
1075;DHT22;526;51.392;12.448;2022-08-19T16:15:18;22.20;97.30
1075;DHT22;526;51.392;12.448;2022-08-19T16:17:45;22.10;97.30
1075;DHT22;526;51.392;12.448;2022-08-19T16:20:12;22.10;97.30
1075;DHT22;526;51.392;12.448;2022-08-19T16:22:39;22.10;97.30
1075;DHT22;526;51.392;12.448;2022-08-19T16:25:06;22.10;97.30
1075;DHT22;526;51.392;12.448;2022-08-19T16:27:33;22.10;97.30
1075;DHT22;526;51.392;12.448;2022-08-19T16:29:58;22.10;97.30
1075;DHT22;526;51.392;12.448;2022-08-19T16:32:24;22.00;97.30